Terminal Aerodrome Forecast
Issued by NWS Bismarck, ND

Home | Current Version | Previous Version | Text Only | Print | Product List | Glossary Off
Versions: 1 2 3 4 5 6 7 8 9 10 11 12 13 14 15 16 17 18 19 20

000
FTUS43 KISN 220847 AAA
TAFISN
TAF AMD
KISN 220847Z 2209/2306 30012G22KT P6SM BKN080
      TEMPO 2209/2212 -RA
     FM221400 28013KT P6SM FEW060 FEW200
     FM221600 29019G28KT P6SM FEW070 FEW200
     FM222000 29026G36KT P6SM FEW070 SCT130
     FM230200 32021G30KT P6SM BKN030=

USA.gov is the U.S. government's official web portal to all federal, state and local government web resources and services.